Time,TemperatureF,DewpointF,PressureIn,WindDirection,WindDirectionDegrees,WindSpeedMPH,WindSpeedGustMPH,Humidity,HourlyPrecipIn,Conditions,Clouds,dailyrainin,SoftwareType,DateUTC
2013-03-10 00:08:00,34.4,33.1,29.77,SSW,200,3.0,7.0,95,0.01,,---,0.00,VWS V14.01,2013-03-10 06:08:00,
2013-03-10 00:13:00,34.4,33.1,29.77,SSW,200,1.0,5.0,95,0.01,,---,0.00,VWS V14.01,2013-03-10 06:13:00,
2013-03-10 00:18:00,34.4,33.1,29.77,SSW,199,3.0,6.0,95,0.01,,---,0.00,VWS V14.01,2013-03-10 06:18:00,
2013-03-10 00:28:00,34.4,33.1,29.77,SW,229,0.0,5.0,95,0.01,,---,0.00,VWS V14.01,2013-03-10 06:28:00,
2013-03-10 00:38:00,34.3,33.0,29.78,SW,229,0.0,0.0,95,0.00,,---,0.00,VWS V14.01,2013-03-10 06:38:00,
2013-03-10 00:43:00,34.2,32.9,29.78,SW,229,0.0,0.0,95,0.00,,---,0.00,VWS V14.01,2013-03-10 06:43:00,
2013-03-10 00:48:00,34.2,32.9,29.78,SW,229,0.0,0.0,95,0.00,,---,0.00,VWS V14.01,2013-03-10 06:48:00,
2013-03-10 00:53:00,34.3,33.0,29.78,WNW,288,1.0,5.0,95,0.00,,---,0.00,VWS V14.01,2013-03-10 06:53:00,
2013-03-10 00:58:00,34.3,33.0,29.78,WNW,288,2.0,3.0,95,0.00,,---,0.00,VWS V14.01,2013-03-10 06:58:00,
2013-03-10 01:03:00,34.2,32.9,29.79,WNW,288,0.0,2.0,95,0.00,,---,0.00,VWS V14.01,2013-03-10 07:03:00,
2013-03-10 01:13:00,34.1,32.8,29.79,WNW,288,0.0,0.0,95,0.00,,---,0.00,VWS V14.01,2013-03-10 07:13:00,
2013-03-10 01:23:00,33.8,32.5,29.78,WNW,287,0.0,0.0,95,0.00,,---,0.00,VWS V14.01,2013-03-10 07:23:00,
2013-03-10 01:28:00,33.6,32.3,29.79,WNW,288,0.0,0.0,95,0.00,,---,0.00,VWS V14.01,2013-03-10 07:28:00,
2013-03-10 01:33:00,33.5,32.2,29.79,WNW,288,0.0,3.0,95,0.00,,---,0.00,VWS V14.01,2013-03-10 07:33:00,
2013-03-10 01:43:00,33.4,32.1,29.79,WNW,287,0.0,1.0,95,0.00,,---,0.00,VWS V14.01,2013-03-10 07:43:00,
2013-03-10 01:48:00,33.3,32.0,29.79,WNW,288,1.0,1.0,95,0.00,,---,0.00,VWS V14.01,2013-03-10 07:48:00,
2013-03-10 01:53:00,33.2,31.9,29.79,WNW,287,3.0,5.0,95,0.00,,---,0.00,VWS V14.01,2013-03-10 07:53:00,
2013-03-10 03:03:00,33.1,31.8,29.78,WNW,287,0.0,1.0,95,0.00,,---,0.00,VWS V14.01,2013-03-10 08:03:00,
2013-03-10 03:08:00,33.0,31.7,29.77,WNW,288,0.0,1.0,95,0.00,,---,0.00,VWS V14.01,2013-03-10 08:08:00,
2013-03-10 03:13:00,33.0,31.7,29.77,WNW,288,1.0,3.0,95,0.00,,---,0.00,VWS V14.01,2013-03-10 08:13:00,
2013-03-10 03:18:00,32.9,31.6,29.78,WNW,287,3.0,4.0,95,0.00,,---,0.00,VWS V14.01,2013-03-10 08:18:00,
2013-03-10 03:23:00,32.9,31.6,29.79,WNW,290,2.0,6.0,95,0.00,,---,0.00,VWS V14.01,2013-03-10 08:23:00,
2013-03-10 03:28:00,32.9,31.6,29.79,WNW,290,0.0,4.0,95,0.00,,---,0.00,VWS V14.01,2013-03-10 08:28:00,
2013-03-10 03:33:00,32.9,31.6,29.79,WNW,298,4.0,5.0,95,0.00,,---,0.00,VWS V14.01,2013-03-10 08:33:00,
2013-03-10 03:38:00,32.9,31.6,29.79,WNW,296,0.0,6.0,95,0.01,,---,0.01,VWS V14.01,2013-03-10 08:38:00,
2013-03-10 03:43:00,32.9,31.6,29.79,WNW,297,3.0,5.0,95,0.01,,---,0.01,VWS V14.01,2013-03-10 08:43:00,
2013-03-10 03:48:00,32.9,31.6,29.80,WNW,297,0.0,5.0,95,0.01,,---,0.01,VWS V14.01,2013-03-10 08:48:00,
2013-03-10 03:53:00,32.8,31.5,29.80,WNW,296,0.0,5.0,95,0.01,,---,0.01,VWS V14.01,2013-03-10 08:53:00,
2013-03-10 03:58:00,32.7,31.4,29.80,WNW,296,0.0,3.0,95,0.01,,---,0.01,VWS V14.01,2013-03-10 08:58:00,
2013-03-10 04:03:00,32.7,31.4,29.79,WNW,296,0.0,3.0,95,0.01,,---,0.01,VWS V14.01,2013-03-10 09:03:00,
2013-03-10 04:08:00,32.6,31.3,29.79,WNW,296,0.0,2.0,95,0.01,,---,0.01,VWS V14.01,2013-03-10 09:08:00,
2013-03-10 04:13:00,32.5,31.2,29.79,WNW,296,0.0,4.0,95,0.01,,---,0.01,VWS V14.01,2013-03-10 09:13:00,
2013-03-10 04:18:00,32.5,31.2,29.79,WNW,295,0.0,3.0,95,0.01,,---,0.01,VWS V14.01,2013-03-10 09:18:00,
2013-03-10 04:23:00,32.5,31.2,29.80,WNW,294,0.0,5.0,95,0.01,,---,0.01,VWS V14.01,2013-03-10 09:23:00,
2013-03-10 04:28:00,32.4,31.1,29.80,WNW,295,1.0,5.0,95,0.01,,---,0.01,VWS V14.01,2013-03-10 09:28:00,
2013-03-10 04:33:00,32.4,31.4,29.80,WNW,295,0.0,5.0,96,0.01,,---,0.01,VWS V14.01,2013-03-10 09:33:00,
2013-03-10 04:43:00,32.3,31.0,29.81,NW,307,1.0,6.0,95,0.00,,---,0.01,VWS V14.01,2013-03-10 09:43:00,
2013-03-10 04:48:00,32.3,31.0,29.80,NW,307,0.0,7.0,95,0.00,,---,0.01,VWS V14.01,2013-03-10 09:48:00,
2013-03-10 04:53:00,32.2,30.9,29.80,NW,306,0.0,3.0,95,0.00,,---,0.01,VWS V14.01,2013-03-10 09:53:00,
2013-03-10 04:58:00,32.2,30.9,29.81,NW,307,3.0,5.0,95,0.00,,---,0.01,VWS V14.01,2013-03-10 09:58:00,
2013-03-10 05:03:00,32.1,30.8,29.81,WNW,294,0.0,5.0,95,0.00,,---,0.01,VWS V14.01,2013-03-10 10:03:00,
2013-03-10 05:08:00,32.1,31.1,29.81,WNW,294,0.0,5.0,96,0.00,,---,0.01,VWS V14.01,2013-03-10 10:08:00,
2013-03-10 05:13:00,32.1,31.1,29.81,WNW,294,0.0,1.0,96,0.00,,---,0.01,VWS V14.01,2013-03-10 10:13:00,
2013-03-10 05:18:00,32.1,31.1,29.82,WNW,294,0.0,3.0,96,0.00,,---,0.01,VWS V14.01,2013-03-10 10:18:00,
2013-03-10 05:23:00,32.0,31.0,29.82,WNW,294,1.0,3.0,96,0.00,,---,0.01,VWS V14.01,2013-03-10 10:23:00,
2013-03-10 05:28:00,32.0,31.0,29.82,WNW,294,0.0,2.0,96,0.00,,---,0.01,VWS V14.01,2013-03-10 10:28:00,
2013-03-10 05:33:00,32.0,31.0,29.82,WNW,294,2.0,2.0,96,0.00,,---,0.01,VWS V14.01,2013-03-10 10:33:00,
2013-03-10 05:43:00,32.0,31.0,29.83,WNW,294,0.0,1.0,96,0.00,,---,0.01,VWS V14.01,2013-03-10 10:43:00,
2013-03-10 05:48:00,32.0,31.0,29.83,WNW,294,1.0,2.0,96,0.00,,---,0.01,VWS V14.01,2013-03-10 10:48:00,
2013-03-10 05:53:00,31.9,30.9,29.83,WNW,294,0.0,4.0,96,0.00,,---,0.01,VWS V14.01,2013-03-10 10:53:00,
2013-03-10 05:58:00,31.9,30.9,29.84,WNW,294,0.0,0.0,96,0.00,,---,0.01,VWS V14.01,2013-03-10 10:58:00,
2013-03-10 06:03:00,31.9,30.9,29.85,WNW,294,1.0,3.0,96,0.00,,---,0.01,VWS V14.01,2013-03-10 11:03:00,
2013-03-10 06:08:00,31.9,30.9,29.85,WNW,301,1.0,7.0,96,0.00,,---,0.01,VWS V14.01,2013-03-10 11:08:00,
2013-03-10 06:18:00,31.9,30.9,29.84,WNW,301,0.0,0.0,96,0.00,,---,0.01,VWS V14.01,2013-03-10 11:18:00,
2013-03-10 06:23:00,31.9,30.9,29.85,WNW,300,0.0,0.0,96,0.00,,---,0.01,VWS V14.01,2013-03-10 11:23:00,
2013-03-10 06:28:00,31.9,30.9,29.84,WNW,301,0.0,2.0,96,0.00,,---,0.01,VWS V14.01,2013-03-10 11:28:00,
2013-03-10 06:33:00,31.8,30.8,29.84,WNW,301,0.0,1.0,96,0.00,,---,0.01,VWS V14.01,2013-03-10 11:33:00,
2013-03-10 06:38:00,31.8,30.8,29.84,WNW,301,1.0,3.0,96,0.00,,---,0.01,VWS V14.01,2013-03-10 11:38:00,
2013-03-10 06:43:00,31.7,30.7,29.83,NNW,333,1.0,4.0,96,0.00,,---,0.01,VWS V14.01,2013-03-10 11:43:00,
2013-03-10 06:48:00,31.8,30.8,29.84,NNW,333,0.0,2.0,96,0.00,,---,0.01,VWS V14.01,2013-03-10 11:48:00,
2013-03-10 06:53:00,31.7,30.7,29.85,NNW,333,0.0,0.0,96,0.00,,---,0.01,VWS V14.01,2013-03-10 11:53:00,
2013-03-10 06:58:00,31.7,30.7,29.84,NNW,333,1.0,3.0,96,0.00,,---,0.01,VWS V14.01,2013-03-10 11:58:00,
2013-03-10 07:03:00,31.7,30.7,29.84,NNW,342,2.0,4.0,96,0.00,,---,0.01,VWS V14.01,2013-03-10 12:03:00,
2013-03-10 07:08:00,31.6,30.6,29.83,NNW,343,0.0,2.0,96,0.00,,---,0.01,VWS V14.01,2013-03-10 12:08:00,
2013-03-10 07:13:00,31.6,30.6,29.84,NNW,343,1.0,3.0,96,0.00,,---,0.01,VWS V14.01,2013-03-10 12:13:00,
2013-03-10 07:18:00,31.6,30.6,29.84,NNW,343,2.0,3.0,96,0.00,,---,0.01,VWS V14.01,2013-03-10 12:18:00,
2013-03-10 07:23:00,31.6,30.6,29.84,NNW,342,2.0,3.0,96,0.00,,---,0.01,VWS V14.01,2013-03-10 12:23:00,
2013-03-10 07:28:00,31.5,30.5,29.86,NNW,343,0.0,3.0,96,0.00,,---,0.01,VWS V14.01,2013-03-10 12:28:00,
2013-03-10 07:33:00,31.5,30.5,29.86,NNW,343,0.0,4.0,96,0.00,,---,0.01,VWS V14.01,2013-03-10 12:33:00,
2013-03-10 07:38:00,31.5,30.5,29.87,NNW,343,1.0,3.0,96,0.00,,---,0.01,VWS V14.01,2013-03-10 12:38:00,
2013-03-10 07:43:00,31.5,30.5,29.87,NNW,342,3.0,3.0,96,0.00,,---,0.01,VWS V14.01,2013-03-10 12:43:00,
2013-03-10 07:48:00,31.5,30.5,29.87,NNW,343,0.0,3.0,96,0.00,,---,0.01,VWS V14.01,2013-03-10 12:48:00,
2013-03-10 07:53:00,31.4,30.4,29.88,NNW,343,0.0,1.0,96,0.00,,---,0.01,VWS V14.01,2013-03-10 12:53:00,
2013-03-10 07:58:00,31.4,30.4,29.88,NNW,343,0.0,0.0,96,0.00,,---,0.01,VWS V14.01,2013-03-10 12:58:00,
2013-03-10 08:03:00,31.4,30.4,29.89,NNW,343,0.0,2.0,96,0.00,,---,0.01,VWS V14.01,2013-03-10 13:03:00,
2013-03-10 08:08:00,31.4,30.4,29.89,NNW,343,2.0,4.0,96,0.00,,---,0.01,VWS V14.01,2013-03-10 13:08:00,
2013-03-10 08:13:00,31.4,30.4,29.89,NNW,343,2.0,3.0,96,0.00,,---,0.01,VWS V14.01,2013-03-10 13:13:00,
2013-03-10 08:18:00,31.3,30.3,29.88,NNW,344,0.0,3.0,96,0.00,,---,0.01,VWS V14.01,2013-03-10 13:18:00,
2013-03-10 08:23:00,31.2,30.2,29.89,NNW,344,4.0,5.0,96,0.00,,---,0.01,VWS V14.01,2013-03-10 13:23:00,
2013-03-10 08:28:00,31.2,30.2,29.88,North,355,2.0,4.0,96,0.00,,---,0.01,VWS V14.01,2013-03-10 13:28:00,
2013-03-10 08:33:00,31.2,30.2,29.88,North,360,0.0,4.0,96,0.00,,---,0.01,VWS V14.01,2013-03-10 13:33:00,
2013-03-10 08:38:00,31.1,30.1,29.88,North,360,4.0,6.0,96,0.00,,---,0.01,VWS V14.01,2013-03-10 13:38:00,
2013-03-10 08:43:00,31.1,30.1,29.88,North,360,3.0,6.0,96,0.00,,---,0.01,VWS V14.01,2013-03-10 13:43:00,
2013-03-10 08:48:00,31.1,30.1,29.89,North,360,0.0,5.0,96,0.00,,---,0.01,VWS V14.01,2013-03-10 13:48:00,
2013-03-10 08:53:00,31.2,30.2,29.88,North,360,1.0,4.0,96,0.00,,---,0.01,VWS V14.01,2013-03-10 13:53:00,
2013-03-10 08:58:00,31.2,30.2,29.90,North,360,4.0,4.0,96,0.00,,---,0.01,VWS V14.01,2013-03-10 13:58:00,
2013-03-10 09:03:00,31.2,30.2,29.89,North,360,1.0,5.0,96,0.00,,---,0.01,VWS V14.01,2013-03-10 14:03:00,
2013-03-10 09:08:00,31.2,30.2,29.88,North,360,3.0,6.0,96,0.00,,---,0.01,VWS V14.01,2013-03-10 14:08:00,
2013-03-10 09:13:00,31.1,30.1,29.91,North,360,0.0,4.0,96,0.00,,---,0.01,VWS V14.01,2013-03-10 14:13:00,
2013-03-10 09:18:00,31.2,30.2,29.93,North,360,0.0,5.0,96,0.00,,---,0.01,VWS V14.01,2013-03-10 14:18:00,
2013-03-10 09:28:00,31.1,30.1,29.91,North,360,2.0,4.0,96,0.00,,---,0.01,VWS V14.01,2013-03-10 14:28:00,
2013-03-10 09:38:00,31.2,29.9,29.92,North,360,3.0,4.0,95,0.00,,---,0.01,VWS V14.01,2013-03-10 14:38:00,
2013-03-10 09:43:00,31.2,29.9,29.93,North,360,4.0,5.0,95,0.00,,---,0.01,VWS V14.01,2013-03-10 14:43:00,
2013-03-10 09:48:00,31.3,30.0,29.93,North,360,2.0,4.0,95,0.00,,---,0.01,VWS V14.01,2013-03-10 14:48:00,
2013-03-10 09:53:00,31.3,30.0,29.93,North,360,2.0,6.0,95,0.00,,---,0.01,VWS V14.01,2013-03-10 14:53:00,
2013-03-10 10:03:00,31.5,30.2,29.94,ENE,65,2.0,4.0,95,0.00,,---,0.01,VWS V14.01,2013-03-10 15:03:00,
2013-03-10 10:08:00,31.5,30.2,29.94,ENE,59,1.0,5.0,95,0.00,,---,0.01,VWS V14.01,2013-03-10 15:08:00,
2013-03-10 10:13:00,31.6,30.3,29.93,ENE,59,2.0,3.0,95,0.00,,---,0.01,VWS V14.01,2013-03-10 15:13:00,
2013-03-10 10:18:00,31.7,30.2,29.94,North,360,1.0,4.0,94,0.00,,---,0.01,VWS V14.01,2013-03-10 15:18:00,
2013-03-10 10:28:00,31.8,30.3,29.94,North,360,3.0,4.0,94,0.00,,---,0.01,VWS V14.01,2013-03-10 15:28:00,
2013-03-10 10:33:00,31.8,30.3,29.95,North,355,0.0,4.0,94,0.00,,---,0.01,VWS V14.01,2013-03-10 15:33:00,
2013-03-10 10:43:00,31.9,30.1,29.94,North,355,1.0,5.0,93,0.00,,---,0.01,VWS V14.01,2013-03-10 15:43:00,
2013-03-10 10:48:00,31.9,30.1,29.93,North,355,2.0,6.0,93,0.00,,---,0.01,VWS V14.01,2013-03-10 15:48:00,
2013-03-10 10:53:00,32.0,29.9,29.93,North,355,2.0,4.0,92,0.00,,---,0.01,VWS V14.01,2013-03-10 15:53:00,
2013-03-10 10:58:00,32.0,29.9,29.93,North,355,1.0,5.0,92,0.00,,---,0.01,VWS V14.01,2013-03-10 15:58:00,
2013-03-10 11:08:00,32.2,29.6,29.94,NNE,21,5.0,6.0,90,0.00,,---,0.01,VWS V14.01,2013-03-10 16:08:00,
2013-03-10 11:13:00,32.3,29.7,29.95,North,5,0.0,7.0,90,0.00,,---,0.01,VWS V14.01,2013-03-10 16:13:00,
2013-03-10 11:18:00,32.4,29.8,29.95,North,5,2.0,4.0,90,0.00,,---,0.01,VWS V14.01,2013-03-10 16:18:00,
2013-03-10 11:28:00,32.5,29.4,29.95,North,355,3.0,9.0,88,0.00,,---,0.01,VWS V14.01,2013-03-10 16:28:00,
2013-03-10 11:33:00,32.6,29.5,29.95,North,355,2.0,4.0,88,0.00,,---,0.01,VWS V14.01,2013-03-10 16:33:00,
2013-03-10 11:38:00,32.6,29.5,29.95,North,355,0.0,5.0,88,0.00,,---,0.01,VWS V14.01,2013-03-10 16:38:00,
2013-03-10 11:48:00,32.7,29.3,29.95,NNE,22,0.0,7.0,87,0.00,,---,0.01,VWS V14.01,2013-03-10 16:48:00,
2013-03-10 11:58:00,32.8,29.4,29.97,North,360,0.0,4.0,87,0.00,,---,0.01,VWS V14.01,2013-03-10 16:58:00,
2013-03-10 12:03:00,32.7,29.0,29.97,North,355,3.0,5.0,86,0.00,,---,0.01,VWS V14.01,2013-03-10 17:03:00,
2013-03-10 12:08:00,32.8,29.1,29.98,NNW,338,3.0,5.0,86,0.00,,---,0.01,VWS V14.01,2013-03-10 17:08:00,
2013-03-10 12:18:00,32.9,29.2,29.98,NNW,336,0.0,3.0,86,0.00,,---,0.01,VWS V14.01,2013-03-10 17:18:00,
2013-03-10 12:23:00,32.9,29.2,29.99,NNW,336,0.0,3.0,86,0.00,,---,0.01,VWS V14.01,2013-03-10 17:23:00,
2013-03-10 12:33:00,32.8,29.1,29.99,NNE,28,4.0,5.0,86,0.00,,---,0.01,VWS V14.01,2013-03-10 17:33:00,
2013-03-10 12:38:00,32.8,29.1,29.99,NNE,32,0.0,4.0,86,0.00,,---,0.01,VWS V14.01,2013-03-10 17:38:00,
2013-03-10 12:43:00,32.8,29.1,29.98,NNE,13,2.0,6.0,86,0.00,,---,0.01,VWS V14.01,2013-03-10 17:43:00,
2013-03-10 12:48:00,32.8,29.1,29.98,NNE,15,4.0,5.0,86,0.00,,---,0.01,VWS V14.01,2013-03-10 17:48:00,
2013-03-10 12:53:00,32.7,28.7,29.97,NNE,12,3.0,6.0,85,0.00,,---,0.01,VWS V14.01,2013-03-10 17:53:00,
2013-03-10 12:58:00,32.7,28.7,29.97,North,360,3.0,5.0,85,0.00,,---,0.01,VWS V14.01,2013-03-10 17:58:00,
2013-03-10 13:03:00,32.7,28.7,29.96,North,360,0.0,4.0,85,0.00,,---,0.01,VWS V14.01,2013-03-10 18:03:00,
2013-03-10 13:13:00,32.6,28.6,29.96,North,360,2.0,5.0,85,0.00,,---,0.01,VWS V14.01,2013-03-10 18:13:00,
2013-03-10 13:18:00,32.5,28.5,29.96,North,9,3.0,5.0,85,0.00,,---,0.01,VWS V14.01,2013-03-10 18:18:00,
2013-03-10 13:23:00,32.4,28.4,29.96,North,9,2.0,5.0,85,0.00,,---,0.01,VWS V14.01,2013-03-10 18:23:00,
2013-03-10 13:33:00,32.3,28.6,29.97,North,11,0.0,4.0,86,0.00,,---,0.01,VWS V14.01,2013-03-10 18:33:00,
2013-03-10 13:38:00,32.4,28.7,29.97,North,10,2.0,4.0,86,0.00,,---,0.01,VWS V14.01,2013-03-10 18:38:00,
2013-03-10 13:48:00,32.4,28.4,29.98,North,11,2.0,3.0,85,0.00,,---,0.01,VWS V14.01,2013-03-10 18:48:00,
2013-03-10 13:53:00,32.3,28.3,29.98,North,10,0.0,5.0,85,0.00,,---,0.01,VWS V14.01,2013-03-10 18:53:00,
2013-03-10 14:03:00,32.3,28.3,29.99,NNE,21,0.0,5.0,85,0.00,,---,0.01,VWS V14.01,2013-03-10 19:03:00,
2013-03-10 14:08:00,32.3,28.3,29.99,NNE,22,2.0,5.0,85,0.00,,---,0.01,VWS V14.01,2013-03-10 19:08:00,
2013-03-10 14:13:00,32.4,28.4,29.99,NNE,22,2.0,3.0,85,0.00,,---,0.01,VWS V14.01,2013-03-10 19:13:00,
2013-03-10 14:18:00,32.3,28.3,29.98,NNW,335,0.0,6.0,85,0.00,,---,0.01,VWS V14.01,2013-03-10 19:18:00,
2013-03-10 14:23:00,32.3,28.3,29.97,NNE,25,0.0,3.0,85,0.00,,---,0.01,VWS V14.01,2013-03-10 19:23:00,
2013-03-10 14:28:00,32.2,28.2,29.97,ENE,61,4.0,5.0,85,0.00,,---,0.01,VWS V14.01,2013-03-10 19:28:00,
2013-03-10 14:33:00,32.1,28.1,29.96,NNE,14,3.0,4.0,85,0.00,,---,0.01,VWS V14.01,2013-03-10 19:33:00,
2013-03-10 14:38:00,32.1,28.1,29.96,North,5,2.0,4.0,85,0.00,,---,0.01,VWS V14.01,2013-03-10 19:38:00,
2013-03-10 14:48:00,32.0,28.0,29.95,NNE,14,4.0,5.0,85,0.00,,---,0.01,VWS V14.01,2013-03-10 19:48:00,
2013-03-10 14:53:00,32.0,28.0,29.95,NE,55,0.0,5.0,85,0.00,,---,0.01,VWS V14.01,2013-03-10 19:53:00,
2013-03-10 15:03:00,31.8,27.8,29.94,NNE,26,2.0,4.0,85,0.00,,---,0.01,VWS V14.01,2013-03-10 20:03:00,
2013-03-10 15:13:00,31.7,27.7,29.94,North,10,1.0,7.0,85,0.00,,---,0.01,VWS V14.01,2013-03-10 20:13:00,
2013-03-10 15:18:00,31.6,27.6,29.94,North,355,6.0,6.0,85,0.00,,---,0.01,VWS V14.01,2013-03-10 20:18:00,
2013-03-10 15:23:00,31.6,27.6,29.94,ENE,61,2.0,6.0,85,0.00,,---,0.01,VWS V14.01,2013-03-10 20:23:00,
2013-03-10 15:28:00,31.6,27.6,29.94,NE,46,0.0,3.0,85,0.00,,---,0.01,VWS V14.01,2013-03-10 20:28:00,
2013-03-10 15:38:00,31.5,27.5,29.95,North,355,4.0,5.0,85,0.00,,---,0.01,VWS V14.01,2013-03-10 20:38:00,
2013-03-10 15:43:00,31.5,27.5,29.95,North,355,2.0,5.0,85,0.00,,---,0.01,VWS V14.01,2013-03-10 20:43:00,
2013-03-10 15:48:00,31.4,27.4,29.96,NNW,346,3.0,7.0,85,0.00,,---,0.01,VWS V14.01,2013-03-10 20:48:00,
2013-03-10 15:58:00,31.5,27.8,29.96,NNE,20,3.0,4.0,86,0.00,,---,0.01,VWS V14.01,2013-03-10 20:58:00,
2013-03-10 16:03:00,31.5,27.8,29.96,NNE,15,2.0,5.0,86,0.00,,---,0.01,VWS V14.01,2013-03-10 21:03:00,
2013-03-10 16:08:00,31.4,27.4,29.96,North,355,0.0,7.0,85,0.00,,---,0.01,VWS V14.01,2013-03-10 21:08:00,
2013-03-10 16:18:00,31.4,27.4,29.97,NNE,16,4.0,7.0,85,0.00,,---,0.01,VWS V14.01,2013-03-10 21:18:00,
2013-03-10 16:23:00,31.3,27.0,29.98,NNE,14,2.0,5.0,84,0.00,,---,0.01,VWS V14.01,2013-03-10 21:23:00,
2013-03-10 16:33:00,31.1,27.1,29.97,North,360,4.0,6.0,85,0.00,,---,0.01,VWS V14.01,2013-03-10 21:33:00,
2013-03-10 16:38:00,31.0,27.0,29.97,North,355,2.0,5.0,85,0.00,,---,0.01,VWS V14.01,2013-03-10 21:38:00,
2013-03-10 16:43:00,31.0,27.0,29.97,North,10,2.0,4.0,85,0.00,,---,0.01,VWS V14.01,2013-03-10 21:43:00,
2013-03-10 16:53:00,30.9,26.9,29.97,North,11,0.0,6.0,85,0.00,,---,0.01,VWS V14.01,2013-03-10 21:53:00,
2013-03-10 16:58:00,30.9,26.9,29.97,North,11,2.0,6.0,85,0.00,,---,0.01,VWS V14.01,2013-03-10 21:58:00,
2013-03-10 17:03:00,30.8,26.8,29.96,North,360,3.0,10.0,85,0.00,,---,0.01,VWS V14.01,2013-03-10 22:03:00,
2013-03-10 17:08:00,30.7,26.7,29.96,NNE,23,4.0,8.0,85,0.00,,---,0.01,VWS V14.01,2013-03-10 22:08:00,
2013-03-10 17:13:00,30.6,26.6,29.96,NNE,22,2.0,6.0,85,0.00,,---,0.01,VWS V14.01,2013-03-10 22:13:00,
2013-03-10 17:23:00,30.5,26.5,29.96,North,9,3.0,9.0,85,0.00,,---,0.01,VWS V14.01,2013-03-10 22:23:00,
2013-03-10 17:28:00,30.5,26.5,29.96,NNE,12,3.0,5.0,85,0.00,,---,0.01,VWS V14.01,2013-03-10 22:28:00,
2013-03-10 17:38:00,30.3,26.3,29.95,North,355,2.0,7.0,85,0.00,,---,0.01,VWS V14.01,2013-03-10 22:38:00,
2013-03-10 17:48:00,30.2,26.5,29.96,North,360,4.0,6.0,86,0.00,,---,0.01,VWS V14.01,2013-03-10 22:48:00,
2013-03-10 17:53:00,30.2,28.2,29.95,NNE,14,3.0,6.0,92,0.00,,---,0.01,VWS V14.01,2013-03-10 22:53:00,
2013-03-10 17:58:00,30.1,26.4,29.95,ENE,61,1.0,9.0,86,0.00,,---,0.01,VWS V14.01,2013-03-10 22:58:00,
2013-03-10 18:08:00,29.9,26.2,29.95,North,10,4.0,6.0,86,0.00,,---,0.01,VWS V14.01,2013-03-10 23:08:00,
2013-03-10 18:13:00,29.8,26.1,29.95,North,360,3.0,9.0,86,0.00,,---,0.01,VWS V14.01,2013-03-10 23:13:00,
2013-03-10 18:18:00,29.8,26.4,29.94,North,351,3.0,6.0,87,0.00,,---,0.01,VWS V14.01,2013-03-10 23:18:00,
2013-03-10 18:23:00,29.7,26.3,29.94,North,5,1.0,11.0,87,0.00,,---,0.01,VWS V14.01,2013-03-10 23:23:00,
2013-03-10 18:33:00,29.7,26.3,29.94,North,360,1.0,5.0,87,0.00,,---,0.01,VWS V14.01,2013-03-10 23:33:00,
2013-03-10 18:38:00,29.6,26.2,29.95,NNW,342,5.0,9.0,87,0.00,,---,0.01,VWS V14.01,2013-03-10 23:38:00,
2013-03-10 18:48:00,29.5,26.4,29.95,North,360,3.0,5.0,88,0.00,,---,0.01,VWS V14.01,2013-03-10 23:48:00,
2013-03-10 18:53:00,29.4,26.3,29.95,North,360,4.0,11.0,88,0.00,,---,0.01,VWS V14.01,2013-03-10 23:53:00,
2013-03-10 18:58:00,29.3,26.2,29.94,NNE,30,1.0,5.0,88,0.00,,---,0.01,VWS V14.01,2013-03-10 23:58:00,
2013-03-10 19:03:00,29.3,26.2,29.94,North,350,2.0,6.0,88,0.00,,---,0.01,VWS V14.01,2013-03-11 00:03:00,
2013-03-10 19:08:00,29.2,26.1,29.94,North,9,0.0,5.0,88,0.00,,---,0.01,VWS V14.01,2013-03-11 00:08:00,
2013-03-10 19:13:00,29.2,26.1,29.95,North,9,4.0,7.0,88,0.00,,---,0.01,VWS V14.01,2013-03-11 00:13:00,
2013-03-10 19:18:00,29.1,26.0,29.95,NNE,31,3.0,6.0,88,0.00,,---,0.01,VWS V14.01,2013-03-11 00:18:00,
2013-03-10 19:23:00,29.0,26.2,29.96,North,355,5.0,7.0,89,0.00,,---,0.01,VWS V14.01,2013-03-11 00:23:00,
2013-03-10 19:28:00,29.0,26.2,29.96,NNW,348,1.0,9.0,89,0.00,,---,0.01,VWS V14.01,2013-03-11 00:28:00,
2013-03-10 19:33:00,29.0,26.2,29.96,NNW,348,4.0,12.0,89,0.00,,---,0.01,VWS V14.01,2013-03-11 00:33:00,
2013-03-10 19:38:00,29.0,26.2,29.97,North,355,3.0,9.0,89,0.00,,---,0.01,VWS V14.01,2013-03-11 00:38:00,
2013-03-10 19:43:00,29.0,26.2,29.96,North,349,4.0,7.0,89,0.00,,---,0.01,VWS V14.01,2013-03-11 00:43:00,
2013-03-10 19:48:00,29.0,26.2,29.96,North,360,3.0,9.0,89,0.00,,---,0.01,VWS V14.01,2013-03-11 00:48:00,
2013-03-10 19:53:00,29.0,26.2,29.96,North,360,3.0,4.0,89,0.00,,---,0.01,VWS V14.01,2013-03-11 00:53:00,
2013-03-10 20:03:00,28.9,26.1,29.96,NNW,345,2.0,10.0,89,0.00,,---,0.01,VWS V14.01,2013-03-11 01:03:00,
2013-03-10 20:08:00,28.9,26.1,29.95,NNE,22,5.0,6.0,89,0.00,,---,0.01,VWS V14.01,2013-03-11 01:08:00,
2013-03-10 20:13:00,28.9,26.1,29.95,NNE,19,3.0,5.0,89,0.00,,---,0.01,VWS V14.01,2013-03-11 01:13:00,
2013-03-10 20:18:00,28.9,26.1,29.94,NE,36,2.0,5.0,89,0.00,,---,0.01,VWS V14.01,2013-03-11 01:18:00,
2013-03-10 20:28:00,28.9,26.1,29.94,North,360,1.0,6.0,89,0.00,,---,0.01,VWS V14.01,2013-03-11 01:28:00,
2013-03-10 20:38:00,28.9,25.8,29.94,NNE,14,2.0,10.0,88,0.00,,---,0.01,VWS V14.01,2013-03-11 01:38:00,
2013-03-10 20:43:00,28.8,25.7,29.94,ENE,71,3.0,9.0,88,0.00,,---,0.01,VWS V14.01,2013-03-11 01:43:00,
2013-03-10 20:48:00,28.8,25.7,29.94,NNE,12,3.0,9.0,88,0.00,,---,0.01,VWS V14.01,2013-03-11 01:48:00,
2013-03-10 20:53:00,28.8,25.7,29.95,North,355,3.0,9.0,88,0.00,,---,0.01,VWS V14.01,2013-03-11 01:53:00,
2013-03-10 21:03:00,28.8,25.7,29.95,NNE,29,5.0,5.0,88,0.00,,---,0.01,VWS V14.01,2013-03-11 02:03:00,
2013-03-10 21:08:00,28.8,25.7,29.95,North,360,0.0,7.0,88,0.00,,---,0.01,VWS V14.01,2013-03-11 02:08:00,
2013-03-10 21:18:00,28.8,25.1,29.97,NNE,17,3.0,10.0,86,0.00,,---,0.01,VWS V14.01,2013-03-11 02:18:00,
2013-03-10 21:23:00,28.8,25.1,29.96,NNE,28,4.0,11.0,86,0.00,,---,0.01,VWS V14.01,2013-03-11 02:23:00,
2013-03-10 21:33:00,28.7,24.8,29.97,North,5,5.0,13.0,85,0.00,,---,0.01,VWS V14.01,2013-03-11 02:33:00,
2013-03-10 21:38:00,28.7,24.8,29.97,NNE,29,4.0,5.0,85,0.00,,---,0.01,VWS V14.01,2013-03-11 02:38:00,
2013-03-10 21:43:00,28.7,24.8,29.97,NNE,17,2.0,12.0,85,0.00,,---,0.01,VWS V14.01,2013-03-11 02:43:00,
2013-03-10 21:53:00,28.6,24.7,29.96,North,9,4.0,6.0,85,0.00,,---,0.01,VWS V14.01,2013-03-11 02:53:00,
2013-03-10 21:58:00,28.6,24.7,29.96,NNE,12,3.0,7.0,85,0.00,,---,0.01,VWS V14.01,2013-03-11 02:58:00,
2013-03-10 22:03:00,28.6,24.7,29.96,ENE,64,6.0,12.0,85,0.00,,---,0.01,VWS V14.01,2013-03-11 03:03:00,
2013-03-10 22:08:00,28.6,24.7,29.96,North,350,2.0,7.0,85,0.00,,---,0.01,VWS V14.01,2013-03-11 03:08:00,
2013-03-10 22:13:00,28.5,24.6,29.96,NNE,21,3.0,5.0,85,0.00,,---,0.01,VWS V14.01,2013-03-11 03:13:00,
2013-03-10 22:18:00,28.5,24.6,29.96,NNE,29,4.0,7.0,85,0.00,,---,0.01,VWS V14.01,2013-03-11 03:18:00,
2013-03-10 22:28:00,28.5,24.6,29.95,North,9,2.0,11.0,85,0.00,,---,0.01,VWS V14.01,2013-03-11 03:28:00,
2013-03-10 22:33:00,28.4,24.8,29.95,NNE,25,7.0,8.0,86,0.00,,---,0.01,VWS V14.01,2013-03-11 03:33:00,
2013-03-10 22:38:00,28.4,24.8,29.94,NE,36,3.0,7.0,86,0.00,,---,0.01,VWS V14.01,2013-03-11 03:38:00,
2013-03-10 22:43:00,28.3,24.7,29.94,North,5,4.0,8.0,86,0.00,,---,0.01,VWS V14.01,2013-03-11 03:43:00,
2013-03-10 22:48:00,28.3,24.7,29.94,North,5,7.0,9.0,86,0.00,,---,0.01,VWS V14.01,2013-03-11 03:48:00,
2013-03-10 22:53:00,28.2,24.3,29.94,North,9,4.0,7.0,85,0.00,,---,0.01,VWS V14.01,2013-03-11 03:53:00,
2013-03-10 22:58:00,28.2,24.3,29.94,NNE,29,4.0,8.0,85,0.00,,---,0.01,VWS V14.01,2013-03-11 03:58:00,
2013-03-10 23:03:00,28.2,24.3,29.93,North,5,4.0,7.0,85,0.00,,---,0.01,VWS V14.01,2013-03-11 04:03:00,
2013-03-10 23:08:00,28.1,23.9,29.93,NNE,30,2.0,11.0,84,0.00,,---,0.01,VWS V14.01,2013-03-11 04:08:00,
2013-03-10 23:13:00,28.1,23.9,29.93,NNE,29,5.0,7.0,84,0.00,,---,0.01,VWS V14.01,2013-03-11 04:13:00,
2013-03-10 23:18:00,28.0,23.8,29.93,NNE,32,3.0,7.0,84,0.00,,---,0.01,VWS V14.01,2013-03-11 04:18:00,
2013-03-10 23:23:00,28.0,23.8,29.92,NE,49,6.0,9.0,84,0.00,,---,0.01,VWS V14.01,2013-03-11 04:23:00,
2013-03-10 23:28:00,28.0,23.8,29.92,ENE,74,1.0,9.0,84,0.00,,---,0.01,VWS V14.01,2013-03-11 04:28:00,
2013-03-10 23:38:00,27.9,23.7,29.91,NNE,24,4.0,10.0,84,0.00,,---,0.01,VWS V14.01,2013-03-11 04:38:00,
2013-03-10 23:43:00,27.9,24.0,29.92,North,355,3.0,8.0,85,0.00,,---,0.01,VWS V14.01,2013-03-11 04:43:00,
2013-03-10 23:48:00,27.9,24.0,29.92,ESE,103,4.0,12.0,85,0.00,,---,0.01,VWS V14.01,2013-03-11 04:48:00,
2013-03-10 23:53:00,27.9,24.0,29.91,NNE,32,3.0,9.0,85,0.00,,---,0.01,VWS V14.01,2013-03-11 04:53:00,
2013-03-10 23:58:00,27.9,24.3,29.91,NNE,14,5.0,7.0,86,0.00,,---,0.01,VWS V14.01,2013-03-11 04:58:00,